createdAt,value
2017-09-01T00:01:58.812Z,5.27
2017-09-01T00:04:26.117Z,4.90
2017-09-01T00:06:53.478Z,4.93
2017-09-01T00:09:20.787Z,5.40
2017-09-01T00:11:48.093Z,5.20
2017-09-01T00:14:15.405Z,5.40
2017-09-01T00:16:42.696Z,5.00
2017-09-01T00:19:10.032Z,5.00
2017-09-01T00:21:37.338Z,5.20
2017-09-01T00:24:04.643Z,5.63
2017-09-01T00:26:32.807Z,5.30
2017-09-01T00:29:00.154Z,5.67
2017-09-01T00:31:27.478Z,5.23
2017-09-01T00:33:54.792Z,5.20
2017-09-01T00:36:23.073Z,5.40
2017-09-01T00:38:50.381Z,5.90
2017-09-01T00:41:17.663Z,5.10
2017-09-01T00:43:45.017Z,5.60
2017-09-01T00:46:12.332Z,6.00
2017-09-01T00:48:40.126Z,6.30
2017-09-01T00:51:07.454Z,5.90
2017-09-01T00:53:34.784Z,6.13
2017-09-01T00:56:02.113Z,5.60
2017-09-01T00:58:29.420Z,5.70
2017-09-01T01:00:56.720Z,4.83
2017-09-01T01:03:24.066Z,4.30
2017-09-01T01:05:51.399Z,4.27
2017-09-01T01:08:18.742Z,5.53
2017-09-01T01:10:46.406Z,5.20
2017-09-01T01:13:13.715Z,5.50
2017-09-01T01:15:41.982Z,6.00
2017-09-01T01:18:09.319Z,5.47
2017-09-01T01:20:36.729Z,5.70
2017-09-01T01:23:04.030Z,5.80
2017-09-01T01:25:31.358Z,5.50
2017-09-01T01:27:58.680Z,5.80
2017-09-01T01:30:26.015Z,5.47
2017-09-01T01:32:53.314Z,6.00
2017-09-01T01:35:20.642Z,5.00
2017-09-01T01:37:47.943Z,5.30
2017-09-01T01:40:15.307Z,5.00
2017-09-01T01:42:42.670Z,5.77
2017-09-01T01:45:10.190Z,5.70
2017-09-01T01:47:37.518Z,5.47
2017-09-01T01:50:04.863Z,5.30
2017-09-01T01:52:32.209Z,5.80
2017-09-01T01:54:59.549Z,6.33
2017-09-01T01:57:27.259Z,6.20
2017-09-01T01:59:54.736Z,6.20
2017-09-01T02:02:22.619Z,6.03
2017-09-01T02:04:49.907Z,5.80
2017-09-01T02:07:17.263Z,5.60
2017-09-01T02:09:44.565Z,5.33
2017-09-01T02:12:11.899Z,5.80
2017-09-01T02:14:39.242Z,5.93
2017-09-01T02:17:06.565Z,6.27
2017-09-01T02:19:33.870Z,6.30
2017-09-01T02:22:01.190Z,5.93
2017-09-01T02:24:28.484Z,5.67
2017-09-01T02:26:55.803Z,5.60
2017-09-01T02:29:23.098Z,5.57
2017-09-01T02:31:50.444Z,5.73
2017-09-01T02:34:17.754Z,5.77
2017-09-01T02:36:45.083Z,5.50
2017-09-01T02:39:12.397Z,5.43
2017-09-01T02:41:39.703Z,4.77
2017-09-01T02:44:07.038Z,5.03
2017-09-01T02:46:34.347Z,4.43
2017-09-01T02:49:01.721Z,4.67
2017-09-01T02:51:29.029Z,4.70
2017-09-01T02:53:56.431Z,6.00
2017-09-01T02:56:23.721Z,4.70
2017-09-01T02:58:51.024Z,4.27
2017-09-01T03:01:18.354Z,4.83
2017-09-01T03:03:45.846Z,4.67
2017-09-01T03:06:13.141Z,4.80
2017-09-01T03:08:40.462Z,4.60
2017-09-01T03:11:07.763Z,5.20
2017-09-01T03:13:35.093Z,4.90
2017-09-01T03:16:02.405Z,5.10
2017-09-01T03:18:29.723Z,5.77
2017-09-01T03:20:57.024Z,5.87
2017-09-01T03:23:24.332Z,5.20
2017-09-01T03:25:51.633Z,5.47
2017-09-01T03:28:18.973Z,5.47
2017-09-01T03:30:46.288Z,4.67
2017-09-01T03:33:13.599Z,4.63
2017-09-01T03:35:40.910Z,5.07
2017-09-01T03:38:08.210Z,4.17
2017-09-01T03:40:35.553Z,4.50
2017-09-01T03:43:02.848Z,4.67
2017-09-01T03:45:30.157Z,5.00
2017-09-01T03:47:57.466Z,4.50
2017-09-01T03:50:25.091Z,4.50
2017-09-01T03:52:52.615Z,4.33
2017-09-01T03:55:19.946Z,4.80
2017-09-01T03:57:47.228Z,4.20
2017-09-01T04:00:14.573Z,4.60
2017-09-01T04:02:41.889Z,4.70
2017-09-01T04:05:09.597Z,4.60
2017-09-01T04:07:36.895Z,5.17
2017-09-01T04:10:04.284Z,4.77
2017-09-01T04:12:31.892Z,5.00
2017-09-01T04:14:59.226Z,5.20
2017-09-01T04:17:26.542Z,4.77
2017-09-01T04:19:53.853Z,4.90
2017-09-01T04:22:21.191Z,4.90
2017-09-01T04:24:48.481Z,4.87
2017-09-01T04:27:15.799Z,5.23
2017-09-01T04:29:43.101Z,5.53
2017-09-01T04:32:10.431Z,5.37
2017-09-01T04:34:37.765Z,5.77
2017-09-01T04:37:05.117Z,5.07
2017-09-01T04:39:32.430Z,5.30
2017-09-01T04:41:59.789Z,5.20
2017-09-01T04:44:27.110Z,6.10
2017-09-01T04:46:54.462Z,5.20
2017-09-01T04:49:21.793Z,5.40
2017-09-01T04:51:49.084Z,5.20
2017-09-01T04:54:16.396Z,5.20
2017-09-01T04:56:43.700Z,5.70
2017-09-01T04:59:11.030Z,5.43
2017-09-01T05:01:38.338Z,5.37
2017-09-01T05:04:05.661Z,5.87
2017-09-01T05:06:32.983Z,4.93
2017-09-01T05:09:00.335Z,5.60
2017-09-01T05:11:27.655Z,5.60
2017-09-01T05:13:55.243Z,5.43
2017-09-01T05:16:23.472Z,5.60
2017-09-01T05:18:50.797Z,5.03
2017-09-01T05:21:18.123Z,5.60
2017-09-01T05:23:45.480Z,6.33
2017-09-01T05:26:12.801Z,5.73
2017-09-01T05:28:40.404Z,5.13
2017-09-01T05:31:07.805Z,5.70
2017-09-01T05:33:35.197Z,6.10
2017-09-01T05:36:02.534Z,5.20
2017-09-01T05:38:29.895Z,5.77
2017-09-01T05:40:57.200Z,5.23
2017-09-01T05:43:24.539Z,6.10
2017-09-01T05:45:51.899Z,5.23
2017-09-01T05:48:19.218Z,6.10
2017-09-01T05:50:46.562Z,5.93
2017-09-01T05:53:13.897Z,6.73
2017-09-01T05:55:42.172Z,5.37
2017-09-01T05:58:09.527Z,5.23
2017-09-01T06:00:36.871Z,5.97
2017-09-01T06:03:04.192Z,6.10
2017-09-01T06:05:31.513Z,5.93
2017-09-01T06:07:58.839Z,4.80
2017-09-01T06:10:26.161Z,6.10
2017-09-01T06:12:53.963Z,5.70
2017-09-01T06:15:21.310Z,4.90
2017-09-01T06:17:48.670Z,5.70
2017-09-01T06:20:15.988Z,6.20
2017-09-01T06:22:43.342Z,5.50
2017-09-01T06:25:10.647Z,5.30
2017-09-01T06:27:38.264Z,5.90
2017-09-01T06:30:05.669Z,5.80
2017-09-01T06:32:33.026Z,5.00
2017-09-01T06:35:00.345Z,5.20
2017-09-01T06:37:27.690Z,5.40
2017-09-01T06:39:55.021Z,4.93
2017-09-01T06:42:22.382Z,5.33
2017-09-01T06:44:49.698Z,5.00
2017-09-01T06:47:17.053Z,4.70
2017-09-01T06:49:44.473Z,5.10
2017-09-01T06:52:11.815Z,4.80
2017-09-01T06:54:39.118Z,5.23
2017-09-01T06:57:06.450Z,4.47
2017-09-01T06:59:33.778Z,4.90
2017-09-01T07:02:01.125Z,5.00
2017-09-01T07:04:28.417Z,5.40
2017-09-01T07:06:55.771Z,4.70
2017-09-01T07:09:23.174Z,4.33
2017-09-01T07:11:50.466Z,5.03
2017-09-01T07:14:17.809Z,4.53
2017-09-01T07:16:45.259Z,4.97
2017-09-01T07:19:12.920Z,4.80
2017-09-01T07:21:40.634Z,4.27
2017-09-01T07:24:07.964Z,4.60
2017-09-01T07:26:35.261Z,4.20
2017-09-01T07:29:02.571Z,4.00
2017-09-01T07:31:29.879Z,4.30
2017-09-01T07:33:57.207Z,4.37
2017-09-01T07:36:24.733Z,3.77
2017-09-01T07:38:52.054Z,3.80
2017-09-01T07:41:19.381Z,4.30
2017-09-01T07:43:46.731Z,4.30
2017-09-01T07:46:14.046Z,4.27
2017-09-01T07:48:41.358Z,4.10
2017-09-01T07:51:08.658Z,4.30
2017-09-01T07:53:35.969Z,4.33
2017-09-01T07:56:03.321Z,3.90
2017-09-01T07:58:30.691Z,3.93
2017-09-01T08:00:57.989Z,3.77
2017-09-01T08:03:25.292Z,3.67
2017-09-01T08:05:52.659Z,4.10
2017-09-01T08:08:20.005Z,4.10
2017-09-01T08:10:47.420Z,4.20
2017-09-01T08:13:14.737Z,3.83
2017-09-01T08:15:43.845Z,3.77
2017-09-01T08:18:11.128Z,3.77
2017-09-01T08:20:38.473Z,3.67
2017-09-01T08:23:05.818Z,3.90
2017-09-01T08:25:33.139Z,2.77
2017-09-01T08:28:00.454Z,3.00
2017-09-01T08:30:27.812Z,3.27
2017-09-01T08:32:55.115Z,3.37
2017-09-01T08:35:22.439Z,3.20
2017-09-01T08:37:49.803Z,2.70
2017-09-01T08:40:17.101Z,2.87
2017-09-01T08:42:44.434Z,2.57
2017-09-01T08:45:11.797Z,2.83
2017-09-01T08:47:39.112Z,2.83
2017-09-01T08:50:06.604Z,2.93
2017-09-01T08:52:33.939Z,2.80
2017-09-01T08:55:02.271Z,2.77
2017-09-01T08:57:29.606Z,2.90
2017-09-01T08:59:56.948Z,2.80
2017-09-01T09:02:24.336Z,2.60
2017-09-01T09:04:51.709Z,3.20
2017-09-01T09:07:19.028Z,2.50
2017-09-01T09:09:46.400Z,3.30
2017-09-01T09:12:13.723Z,2.60
2017-09-01T09:14:41.038Z,2.80
2017-09-01T09:17:08.358Z,3.40
2017-09-01T09:19:35.727Z,3.00
2017-09-01T09:22:03.030Z,2.80
2017-09-01T09:24:30.403Z,2.67
2017-09-01T09:26:57.724Z,2.70
2017-09-01T09:29:25.040Z,2.80
2017-09-01T09:31:52.346Z,2.97
2017-09-01T09:34:19.687Z,2.70
2017-09-01T09:36:46.980Z,3.10
2017-09-01T09:39:15.232Z,3.10
2017-09-01T09:41:42.587Z,2.70
2017-09-01T09:44:09.943Z,2.63
2017-09-01T09:46:37.297Z,2.63
2017-09-01T09:49:04.619Z,2.60
2017-09-01T09:51:31.967Z,2.90
2017-09-01T09:53:59.305Z,2.60
2017-09-01T09:56:26.631Z,2.40
2017-09-01T09:58:53.971Z,2.30
2017-09-01T10:01:21.328Z,2.40
2017-09-01T10:03:48.655Z,2.30
2017-09-01T10:06:16.019Z,2.30
2017-09-01T10:08:43.433Z,2.50
2017-09-01T10:11:10.773Z,2.60
2017-09-01T10:13:38.068Z,2.50
2017-09-01T10:16:05.368Z,2.17
2017-09-01T10:18:32.702Z,2.30
2017-09-01T10:21:00.056Z,2.50
2017-09-01T10:23:27.352Z,2.37
2017-09-01T10:25:54.728Z,2.23
2017-09-01T10:28:22.078Z,2.17
2017-09-01T10:30:50.446Z,2.40
2017-09-01T10:33:17.773Z,2.43
2017-09-01T10:35:45.163Z,2.50
2017-09-01T10:38:12.469Z,2.53
2017-09-01T10:40:39.777Z,2.03
2017-09-01T10:43:07.100Z,2.30
2017-09-01T10:45:34.417Z,2.43
2017-09-01T10:48:07.713Z,2.37
2017-09-01T10:50:41.095Z,2.47
2017-09-01T10:53:14.347Z,2.07
2017-09-01T10:55:47.506Z,2.33
2017-09-01T10:58:17.683Z,2.20
2017-09-01T11:00:44.981Z,3.00
2017-09-01T11:03:12.300Z,2.37
2017-09-01T11:05:39.607Z,2.50
2017-09-01T11:08:06.947Z,2.50
2017-09-01T11:10:34.301Z,2.70
2017-09-01T11:13:01.657Z,2.13
2017-09-01T11:15:29.895Z,2.53
2017-09-01T11:17:57.283Z,2.50
2017-09-01T11:20:30.347Z,2.50
2017-09-01T11:23:03.324Z,2.30
2017-09-01T11:25:30.668Z,2.60
2017-09-01T11:27:57.994Z,2.27
2017-09-01T11:30:25.317Z,2.50
2017-09-01T11:32:52.804Z,2.60
2017-09-01T11:35:20.141Z,2.47
2017-09-01T11:37:47.462Z,2.10
2017-09-01T11:40:14.794Z,2.90
2017-09-01T11:42:42.147Z,2.43
2017-09-01T11:45:09.483Z,2.20
2017-09-01T11:47:36.793Z,2.60
2017-09-01T11:50:04.130Z,2.20
2017-09-01T11:52:31.546Z,2.20
2017-09-01T11:54:58.862Z,2.17
2017-09-01T11:57:26.176Z,2.47
2017-09-01T11:59:53.539Z,2.70
2017-09-01T12:02:20.850Z,2.57
2017-09-01T12:04:48.188Z,2.80
2017-09-01T12:07:15.634Z,2.13
2017-09-01T12:09:42.961Z,2.53
2017-09-01T12:12:10.301Z,2.57
2017-09-01T12:14:37.613Z,2.40
2017-09-01T12:17:05.023Z,2.63
2017-09-01T12:19:32.345Z,2.37
2017-09-01T12:21:59.762Z,2.80
2017-09-01T12:24:27.086Z,2.70
2017-09-01T12:26:54.565Z,2.57
2017-09-01T12:29:21.917Z,2.50
2017-09-01T12:31:49.311Z,2.53
2017-09-01T12:34:16.630Z,2.53
2017-09-01T12:36:43.918Z,2.60
2017-09-01T12:39:11.248Z,2.60
2017-09-01T12:41:38.560Z,2.53
2017-09-01T12:44:05.852Z,2.80
2017-09-01T12:46:33.160Z,2.43
2017-09-01T12:49:00.462Z,2.40
2017-09-01T12:51:27.784Z,2.30
2017-09-01T12:53:55.117Z,2.77
2017-09-01T12:56:22.576Z,2.87
2017-09-01T12:58:49.927Z,2.60
2017-09-01T13:01:17.262Z,2.70
2017-09-01T13:03:44.587Z,2.77
2017-09-01T13:06:11.938Z,2.87
2017-09-01T13:08:39.277Z,2.83
2017-09-01T13:11:06.644Z,2.60
2017-09-01T13:13:33.944Z,2.70
2017-09-01T13:16:01.272Z,2.70
2017-09-01T13:18:28.605Z,2.53
2017-09-01T13:20:55.943Z,2.80
2017-09-01T13:23:23.233Z,2.80
2017-09-01T13:25:50.562Z,2.80
2017-09-01T13:28:18.499Z,2.70
2017-09-01T13:30:45.834Z,2.70
2017-09-01T13:33:13.132Z,2.63
2017-09-01T13:35:40.444Z,2.60
2017-09-01T13:38:07.783Z,2.83
2017-09-01T13:40:35.122Z,3.00
2017-09-01T13:43:02.448Z,2.80
2017-09-01T13:45:29.782Z,3.00
2017-09-01T13:47:57.076Z,2.87
2017-09-01T13:50:24.368Z,3.30
2017-09-01T13:52:51.690Z,2.50
2017-09-01T13:55:18.986Z,3.13
2017-09-01T13:57:46.301Z,2.93
2017-09-01T14:00:13.619Z,2.83
2017-09-01T14:02:41.206Z,2.70
2017-09-01T14:05:08.573Z,3.20
2017-09-01T14:07:35.872Z,3.20
2017-09-01T14:10:03.182Z,3.07
2017-09-01T14:12:30.506Z,3.03
2017-09-01T14:14:57.811Z,3.00
2017-09-01T14:17:25.146Z,2.50
2017-09-01T14:19:52.486Z,2.97
2017-09-01T14:22:19.825Z,3.03
2017-09-01T14:24:47.145Z,3.10
2017-09-01T14:27:14.478Z,3.00
2017-09-01T14:29:41.769Z,2.90
2017-09-01T14:32:09.115Z,2.67
2017-09-01T14:34:36.426Z,2.80
2017-09-01T14:37:03.748Z,3.10
2017-09-01T14:39:31.151Z,2.70
2017-09-01T14:41:58.467Z,2.90
2017-09-01T14:44:26.148Z,3.00
2017-09-01T14:46:53.452Z,3.17
2017-09-01T14:49:20.799Z,3.87
2017-09-01T14:51:48.107Z,3.00
2017-09-01T14:54:15.425Z,3.20
2017-09-01T14:56:42.741Z,3.00
2017-09-01T14:59:10.052Z,3.27
2017-09-01T15:01:37.390Z,3.07
2017-09-01T15:04:04.740Z,3.30
2017-09-01T15:06:32.040Z,3.27
2017-09-01T15:08:59.369Z,2.93
2017-09-01T15:11:26.674Z,2.97
2017-09-01T15:13:54.159Z,2.87
2017-09-01T15:16:21.473Z,2.93
2017-09-01T15:18:48.866Z,2.87
2017-09-01T15:21:16.250Z,2.80
2017-09-01T15:23:43.565Z,2.53
2017-09-01T15:26:11.302Z,3.00
2017-09-01T15:28:38.655Z,2.77
2017-09-01T15:31:06.000Z,3.10
2017-09-01T15:33:33.342Z,3.03
2017-09-01T15:36:00.701Z,2.90
2017-09-01T15:38:27.992Z,3.03
2017-09-01T15:40:55.374Z,3.50
2017-09-01T15:43:22.682Z,3.40
2017-09-01T15:45:51.010Z,3.27
2017-09-01T15:48:18.297Z,2.60
2017-09-01T15:50:45.641Z,3.17
2017-09-01T15:53:12.983Z,3.40
2017-09-01T15:55:40.332Z,2.60
2017-09-01T15:58:07.663Z,3.10
2017-09-01T16:00:35.021Z,3.10
2017-09-01T16:03:02.363Z,3.53
2017-09-01T16:05:29.689Z,3.43
2017-09-01T16:07:57.039Z,3.47
2017-09-01T16:10:24.387Z,3.10
2017-09-01T16:12:51.753Z,3.37
2017-09-01T16:15:19.088Z,3.53
2017-09-01T16:17:46.376Z,3.10
2017-09-01T16:20:13.682Z,3.17
2017-09-01T16:22:41.279Z,2.90
2017-09-01T16:25:08.622Z,2.70
2017-09-01T16:27:35.962Z,3.70
2017-09-01T16:30:03.310Z,3.20
2017-09-01T16:32:30.679Z,3.17
2017-09-01T16:34:57.998Z,3.37
2017-09-01T16:37:25.332Z,3.53
2017-09-01T16:39:52.693Z,3.40
2017-09-01T16:42:20.001Z,3.30
2017-09-01T16:44:47.337Z,3.70
2017-09-01T16:47:14.662Z,3.50
2017-09-01T16:49:41.961Z,3.30
2017-09-01T16:52:09.328Z,3.30
2017-09-01T16:54:36.637Z,3.87
2017-09-01T16:57:03.979Z,3.33
2017-09-01T16:59:31.346Z,3.70
2017-09-01T17:01:58.634Z,3.97
2017-09-01T17:04:26.047Z,3.90
2017-09-01T17:06:53.376Z,3.90
2017-09-01T17:09:20.695Z,3.40
2017-09-01T17:11:48.028Z,3.87
2017-09-01T17:14:15.367Z,4.63
2017-09-01T17:16:42.674Z,4.20
2017-09-01T17:19:10.073Z,4.30
2017-09-01T17:21:37.393Z,4.10
2017-09-01T17:24:04.838Z,3.77
2017-09-01T17:26:32.244Z,4.10
2017-09-01T17:28:59.556Z,3.93
2017-09-01T17:31:27.044Z,4.57
2017-09-01T17:33:54.388Z,4.70
2017-09-01T17:36:21.723Z,4.20
2017-09-01T17:38:49.082Z,4.33
2017-09-01T17:41:16.432Z,4.43
2017-09-01T17:43:43.785Z,4.23
2017-09-01T17:46:11.391Z,4.13
2017-09-01T17:48:38.729Z,5.10
2017-09-01T17:51:06.108Z,4.77
2017-09-01T17:53:33.408Z,4.27
2017-09-01T17:56:00.782Z,4.90
2017-09-01T17:58:28.098Z,4.90
2017-09-01T18:00:55.467Z,4.73
2017-09-01T18:03:22.781Z,5.80
2017-09-01T18:05:50.103Z,5.50
2017-09-01T18:08:17.447Z,5.73
2017-09-01T18:10:44.816Z,6.20
2017-09-01T18:13:12.247Z,6.93
2017-09-01T18:15:39.584Z,6.77
2017-09-01T18:18:06.936Z,6.77
2017-09-01T18:20:34.305Z,7.40
2017-09-01T18:23:01.639Z,5.80
2017-09-01T18:25:28.957Z,5.37
2017-09-01T18:27:56.293Z,5.40
2017-09-01T18:30:23.646Z,5.70
2017-09-01T18:32:50.973Z,5.13
2017-09-01T18:35:18.669Z,5.03
2017-09-01T18:37:47.123Z,4.90
2017-09-01T18:40:14.471Z,4.77
2017-09-01T18:42:41.777Z,4.77
2017-09-01T18:45:09.128Z,4.53
2017-09-01T18:47:36.754Z,4.80
2017-09-01T18:50:04.078Z,4.70
2017-09-01T18:52:31.451Z,4.60
2017-09-01T18:54:58.781Z,4.57
2017-09-01T18:57:26.169Z,4.50
2017-09-01T18:59:53.581Z,4.83
2017-09-01T19:02:20.912Z,4.50
2017-09-01T19:04:48.315Z,5.60
2017-09-01T19:07:15.637Z,5.43
2017-09-01T19:09:42.963Z,6.70
2017-09-01T19:12:10.321Z,6.53
2017-09-01T19:14:37.777Z,6.60
2017-09-01T19:17:05.101Z,6.30
2017-09-01T19:19:32.418Z,6.43
2017-09-01T19:21:59.786Z,6.67
2017-09-01T19:24:27.102Z,6.40
2017-09-01T19:26:54.507Z,6.20
2017-09-01T19:29:21.859Z,7.60
2017-09-01T19:31:49.269Z,7.97
2017-09-01T19:34:16.605Z,6.60
2017-09-01T19:36:43.926Z,7.20
2017-09-01T19:39:11.639Z,7.03
2017-09-01T19:41:38.960Z,6.60
2017-09-01T19:44:06.281Z,6.43
2017-09-01T19:46:33.595Z,6.90
2017-09-01T19:49:00.928Z,6.00
2017-09-01T19:51:28.289Z,5.70
2017-09-01T19:53:55.666Z,6.10
2017-09-01T19:56:22.968Z,6.13
2017-09-01T19:58:50.308Z,6.50
2017-09-01T20:01:18.212Z,6.47
2017-09-01T20:03:45.526Z,5.40
2017-09-01T20:06:12.807Z,6.13
2017-09-01T20:08:40.159Z,6.40
2017-09-01T20:11:07.492Z,6.10
2017-09-01T20:13:34.838Z,6.13
2017-09-01T20:16:02.151Z,6.23
2017-09-01T20:18:30.294Z,6.80
2017-09-01T20:20:57.598Z,6.97
2017-09-01T20:23:24.939Z,6.20
2017-09-01T20:25:52.247Z,6.87
2017-09-01T20:28:19.567Z,7.27
2017-09-01T20:30:46.871Z,7.00
2017-09-01T20:33:14.181Z,7.03
2017-09-01T20:35:41.648Z,7.97
2017-09-01T20:38:08.984Z,7.17
2017-09-01T20:40:36.317Z,8.27
2017-09-01T20:43:03.644Z,8.23
2017-09-01T20:45:31.002Z,7.70
2017-09-01T20:47:58.326Z,8.30
2017-09-01T20:50:25.679Z,7.63
2017-09-01T20:52:53.315Z,8.00
2017-09-01T20:55:20.663Z,8.80
2017-09-01T20:57:49.140Z,7.40
2017-09-01T21:00:17.106Z,8.10
2017-09-01T21:02:44.404Z,7.70
2017-09-01T21:05:11.728Z,7.10
2017-09-01T21:07:39.039Z,9.03
2017-09-01T21:10:06.355Z,8.90
2017-09-01T21:12:33.701Z,7.83
2017-09-01T21:15:01.014Z,6.90
2017-09-01T21:17:28.377Z,7.47
2017-09-01T21:19:55.701Z,6.63
2017-09-01T21:22:23.022Z,6.43
2017-09-01T21:24:50.329Z,6.60
2017-09-01T21:27:17.645Z,7.13
2017-09-01T21:29:44.959Z,7.40
2017-09-01T21:32:12.439Z,7.10
2017-09-01T21:34:39.744Z,7.00
2017-09-01T21:37:07.066Z,6.53
2017-09-01T21:39:34.365Z,5.93
2017-09-01T21:42:01.715Z,5.83
2017-09-01T21:44:29.025Z,5.47
2017-09-01T21:46:56.882Z,5.93
2017-09-01T21:49:24.216Z,6.20
2017-09-01T21:51:51.552Z,5.57
2017-09-01T21:54:18.893Z,5.90
2017-09-01T21:56:46.445Z,5.97
2017-09-01T21:59:13.793Z,5.37
2017-09-01T22:01:41.137Z,5.40
2017-09-01T22:04:08.489Z,5.20
2017-09-01T22:06:35.838Z,6.30
2017-09-01T22:09:03.160Z,5.43
2017-09-01T22:11:30.502Z,6.40
2017-09-01T22:13:57.813Z,5.30
2017-09-01T22:16:25.109Z,5.23
2017-09-01T22:18:52.427Z,5.70
2017-09-01T22:21:19.727Z,4.93
2017-09-01T22:23:47.058Z,4.80
2017-09-01T22:26:14.349Z,5.13
2017-09-01T22:28:41.789Z,5.10
2017-09-01T22:31:09.122Z,5.63
2017-09-01T22:33:36.468Z,5.67
2017-09-01T22:36:03.777Z,5.20
2017-09-01T22:38:31.156Z,5.50
2017-09-01T22:40:58.473Z,5.53
2017-09-01T22:43:25.786Z,5.73
2017-09-01T22:45:53.102Z,5.80
2017-09-01T22:48:20.424Z,6.23
2017-09-01T22:50:48.043Z,5.47
2017-09-01T22:53:15.440Z,5.80
2017-09-01T22:55:42.760Z,5.70
2017-09-01T22:58:10.074Z,5.60
2017-09-01T23:00:37.386Z,5.73
2017-09-01T23:03:04.690Z,5.63
2017-09-01T23:05:32.013Z,6.10
2017-09-01T23:07:59.311Z,5.60
2017-09-01T23:10:26.626Z,6.03
2017-09-01T23:12:54.201Z,6.03
2017-09-01T23:15:21.531Z,6.40
2017-09-01T23:17:48.825Z,6.07
2017-09-01T23:20:16.135Z,5.97
2017-09-01T23:22:43.473Z,6.10
2017-09-01T23:25:10.788Z,6.20
2017-09-01T23:27:38.090Z,6.80
2017-09-01T23:30:05.422Z,6.60
2017-09-01T23:32:32.736Z,6.57
2017-09-01T23:35:00.065Z,6.63
2017-09-01T23:37:27.360Z,6.80
2017-09-01T23:39:54.667Z,6.90
2017-09-01T23:42:21.989Z,7.70
2017-09-01T23:44:49.284Z,7.63
2017-09-01T23:47:16.615Z,7.27
2017-09-01T23:49:43.926Z,5.37
2017-09-01T23:52:11.251Z,5.77
2017-09-01T23:54:38.548Z,5.90
2017-09-01T23:57:05.882Z,5.33
2017-09-01T23:59:33.211Z,5.63
